Time;durP1;ratioP1;P1;durP2;ratioP2;P2;SDS_P1;SDS_P2;PMS_P1;PMS_P2;Temp;Humidity;BMP_temperature;BMP_pressure;BME280_temperature;BME280_humidity;BME280_pressure;Samples;Min_cycle;Max_cycle;Signal;HPM_P1;HPM_P2
2021/09/01 00:00:25;;;;;;;4.70;3.80;;;;;;;;;;5011836;28;20222;-86
2021/09/01 00:02:54;;;;;;;5.07;3.00;;;;;;;;;;4999751;28;20238;-86
2021/09/01 00:05:20;;;;;;;5.27;3.80;;;;;;;;;;4990666;28;20182;-86
2021/09/01 00:07:47;;;;;;;7.77;4.03;;;;;;;;;;4999689;28;20229;-86
2021/09/01 00:10:14;;;;;;;6.37;4.10;;;;;;;;;;5003440;28;20186;-86
2021/09/01 00:12:42;;;;;;;6.60;3.87;;;;;;;;;;4998665;28;20264;-86
2021/09/01 00:15:08;;;;;;;8.30;4.83;;;;;;;;;;5017175;28;20189;-87
2021/09/01 00:17:37;;;;;;;6.10;4.20;;;;;;;;;;5017572;28;20174;-86
2021/09/01 00:20:04;;;;;;;5.63;3.83;;;;;;;;;;4987207;28;20281;-86
2021/09/01 00:22:30;;;;;;;5.10;3.47;;;;;;;;;;4999749;28;20218;-86
2021/09/01 00:24:56;;;;;;;4.67;4.17;;;;;;;;;;5005892;28;20185;-86
2021/09/01 00:27:22;;;;;;;4.23;3.80;;;;;;;;;;5023486;28;20602;-86
2021/09/01 00:29:50;;;;;;;6.00;4.30;;;;;;;;;;5005886;28;20282;-87
2021/09/01 00:32:16;;;;;;;4.70;4.30;;;;;;;;;;5002135;28;20194;-88
2021/09/01 00:34:42;;;;;;;6.07;3.83;;;;;;;;;;5017455;28;20174;-87
2021/09/01 00:37:08;;;;;;;5.50;4.17;;;;;;;;;;5032475;28;20194;-87
2021/09/01 00:39:40;;;;;;;8.83;4.43;;;;;;;;;;5017692;28;20256;-87
2021/09/01 00:42:06;;;;;;;4.90;4.00;;;;;;;;;;4999816;28;20717;-87
2021/09/01 00:44:32;;;;;;;6.13;4.57;;;;;;;;;;4998480;28;20175;-87
2021/09/01 00:46:59;;;;;;;7.10;4.27;;;;;;;;;;5016759;28;20179;-87
2021/09/01 00:49:29;;;;;;;4.33;3.90;;;;;;;;;;4997263;28;20179;-87
2021/09/01 00:51:55;;;;;;;7.13;3.87;;;;;;;;;;5015943;28;20186;-87
2021/09/01 00:54:25;;;;;;;7.63;4.20;;;;;;;;;;5016381;28;20177;-87
2021/09/01 00:56:56;;;;;;;7.90;4.20;;;;;;;;;;5020145;28;20198;-87
2021/09/01 00:59:31;;;;;;;6.17;4.47;;;;;;;;;;4999273;28;20178;-88
2021/09/01 01:01:58;;;;;;;4.23;3.70;;;;;;;;;;5039915;28;20192;-87
2021/09/01 01:04:27;;;;;;;7.90;4.27;;;;;;;;;;5018076;28;20182;-87
2021/09/01 01:06:57;;;;;;;7.27;4.20;;;;;;;;;;5018385;28;20281;-87
2021/09/01 01:09:23;;;;;;;8.87;4.53;;;;;;;;;;5019638;28;20189;-87
2021/09/01 01:11:59;;;;;;;5.80;4.30;;;;;;;;;;5036124;28;20169;-86
2021/09/01 01:14:26;;;;;;;7.37;4.67;;;;;;;;;;5018330;28;20186;-87
2021/09/01 01:16:52;;;;;;;6.57;4.37;;;;;;;;;;5036815;28;20265;-87
2021/09/01 01:19:21;;;;;;;7.67;4.20;;;;;;;;;;5037395;28;20174;-87
2021/09/01 01:21:47;;;;;;;4.20;3.80;;;;;;;;;;5054086;28;20602;-87
2021/09/01 01:24:13;;;;;;;5.20;3.83;;;;;;;;;;5035618;28;20251;-87
2021/09/01 01:26:40;;;;;;;6.33;4.43;;;;;;;;;;5018470;28;20733;-87
2021/09/01 01:29:11;;;;;;;5.50;4.03;;;;;;;;;;5018847;28;20185;-87
2021/09/01 01:31:38;;;;;;;5.27;3.97;;;;;;;;;;5038310;28;20259;-87
2021/09/01 01:34:07;;;;;;;6.68;4.22;;;;;;;;;;5028021;28;20505;-86
2021/09/01 01:36:33;;;;;;;5.50;4.20;;;;;;;;;;5017983;28;20197;-87
2021/09/01 01:38:59;;;;;;;7.60;4.23;;;;;;;;;;5016511;28;20174;-86
2021/09/01 01:41:25;;;;;;;6.33;3.73;;;;;;;;;;5019405;28;20186;-86
2021/09/01 01:43:52;;;;;;;4.23;3.80;;;;;;;;;;5018836;28;20229;-86
2021/09/01 01:46:18;;;;;;;5.47;3.57;;;;;;;;;;5019367;28;20253;-87
2021/09/01 01:48:44;;;;;;;5.60;4.20;;;;;;;;;;5015962;28;20185;-87
2021/09/01 01:51:11;;;;;;;9.40;3.97;;;;;;;;;;5017641;28;20205;-87
2021/09/01 01:53:40;;;;;;;6.67;4.17;;;;;;;;;;5017631;28;20635;-87
2021/09/01 01:56:06;;;;;;;5.40;3.57;;;;;;;;;;5035288;28;20193;-86
2021/09/01 01:58:32;;;;;;;7.43;4.50;;;;;;;;;;5020617;28;20182;-87
2021/09/01 02:01:00;;;;;;;5.30;3.90;;;;;;;;;;5023055;28;20229;-87
2021/09/01 02:03:26;;;;;;;4.70;4.30;;;;;;;;;;5020421;28;20201;-87
2021/09/01 02:05:52;;;;;;;5.47;4.50;;;;;;;;;;5019838;28;20190;-86
2021/09/01 02:08:18;;;;;;;6.40;4.33;;;;;;;;;;5016014;28;20179;-87
2021/09/01 02:10:44;;;;;;;5.70;3.93;;;;;;;;;;5011694;28;20174;-87
2021/09/01 02:13:10;;;;;;;5.43;4.07;;;;;;;;;;5017448;28;20185;-86
2021/09/01 02:15:37;;;;;;;5.70;3.70;;;;;;;;;;5017553;28;20249;-86
2021/09/01 02:18:03;;;;;;;5.63;4.27;;;;;;;;;;5033583;28;20272;-86
2021/09/01 02:20:31;;;;;;;7.03;4.60;;;;;;;;;;5023078;28;20204;-86
2021/09/01 02:22:58;;;;;;;6.00;3.70;;;;;;;;;;5035427;28;20812;-87
2021/09/01 02:25:26;;;;;;;6.27;3.50;;;;;;;;;;5014318;28;20281;-86
2021/09/01 02:27:52;;;;;;;7.73;4.07;;;;;;;;;;5014152;28;20181;-86
2021/09/01 02:30:21;;;;;;;3.90;3.40;;;;;;;;;;5009478;28;20260;-86
2021/09/01 02:32:47;;;;;;;5.13;4.00;;;;;;;;;;5015655;28;20182;-86
2021/09/01 02:35:14;;;;;;;7.10;4.30;;;;;;;;;;5014175;28;20186;-87
2021/09/01 02:37:40;;;;;;;7.90;3.80;;;;;;;;;;5014513;28;20189;-87
2021/09/01 02:40:06;;;;;;;5.23;3.63;;;;;;;;;;5025866;28;20253;-86
2021/09/01 02:42:32;;;;;;;10.00;3.40;;;;;;;;;;5017690;28;20197;-86
2021/09/01 02:45:00;;;;;;;8.30;4.47;;;;;;;;;;5017191;28;20578;-86
2021/09/01 02:47:26;;;;;;;4.87;3.87;;;;;;;;;;5034027;28;20205;-86
2021/09/01 02:49:52;;;;;;;5.37;3.50;;;;;;;;;;5015571;28;20190;-86
2021/09/01 02:52:18;;;;;;;6.07;3.60;;;;;;;;;;5033875;28;20200;-86
2021/09/01 02:54:44;;;;;;;4.73;3.60;;;;;;;;;;5015975;28;20194;-86
2021/09/01 02:57:10;;;;;;;5.63;3.93;;;;;;;;;;5016313;28;20180;-86
2021/09/01 02:59:36;;;;;;;5.17;3.90;;;;;;;;;;5017358;28;20534;-86
2021/09/01 03:02:03;;;;;;;4.57;3.50;;;;;;;;;;5032459;28;20181;-86
2021/09/01 03:04:29;;;;;;;6.20;3.20;;;;;;;;;;5015901;28;20587;-86
2021/09/01 03:06:55;;;;;;;5.33;3.97;;;;;;;;;;5017170;28;20195;-86
2021/09/01 03:09:21;;;;;;;5.00;4.00;;;;;;;;;;5008809;28;20175;-87
2021/09/01 03:11:47;;;;;;;5.17;3.40;;;;;;;;;;5022313;28;20269;-86
2021/09/01 03:14:13;;;;;;;5.43;3.70;;;;;;;;;;5021297;28;20174;-87
2021/09/01 03:16:40;;;;;;;13.20;12.30;;;;;;;;;;5036605;28;20174;-86
2021/09/01 03:19:08;;;;;;;6.10;4.43;;;;;;;;;;5022021;28;20182;-85
2021/09/01 03:21:34;;;;;;;5.27;4.53;;;;;;;;;;5021887;28;20336;-86
2021/09/01 03:24:00;;;;;;;6.13;4.70;;;;;;;;;;5019284;28;20226;-86
2021/09/01 03:26:28;;;;;;;6.77;5.00;;;;;;;;;;5021144;28;20264;-87
2021/09/01 03:28:54;;;;;;;7.00;4.93;;;;;;;;;;5021630;28;20182;-86
2021/09/01 03:31:25;;;;;;;7.87;5.73;;;;;;;;;;5021008;28;20303;-86
2021/09/01 03:33:52;;;;;;;6.93;4.30;;;;;;;;;;5013545;28;20509;-86
2021/09/01 03:36:18;;;;;;;6.33;4.53;;;;;;;;;;5016930;28;20190;-86
2021/09/01 03:38:44;;;;;;;5.03;4.10;;;;;;;;;;5027021;28;20790;-86
2021/09/01 03:41:16;;;;;;;6.50;4.40;;;;;;;;;;5017895;28;20186;-87
2021/09/01 03:43:43;;;;;;;7.07;4.07;;;;;;;;;;5022377;28;20288;-86
2021/09/01 03:46:09;;;;;;;5.33;4.80;;;;;;;;;;5038783;28;20237;-86
2021/09/01 03:48:35;;;;;;;6.33;4.03;;;;;;;;;;5019633;28;20170;-86
2021/09/01 03:51:02;;;;;;;7.70;4.17;;;;;;;;;;5022001;28;20177;-86
2021/09/01 03:53:28;;;;;;;11.47;4.50;;;;;;;;;;5037261;28;20265;-86
2021/09/01 03:55:55;;;;;;;4.53;4.00;;;;;;;;;;5021304;28;20637;-86
2021/09/01 03:58:21;;;;;;;7.37;4.53;;;;;;;;;;5037633;28;20193;-86
2021/09/01 04:00:47;;;;;;;7.03;4.67;;;;;;;;;;5018834;28;20288;-86
2021/09/01 04:03:13;;;;;;;6.73;6.27;;;;;;;;;;5037961;28;20208;-86
2021/09/01 04:05:39;;;;;;;6.23;4.03;;;;;;;;;;5019898;28;20189;-86
2021/09/01 04:08:06;;;;;;;8.13;4.47;;;;;;;;;;5020101;28;20224;-85
2021/09/01 04:10:32;;;;;;;6.47;4.33;;;;;;;;;;5036224;28;20182;-85
2021/09/01 04:12:58;;;;;;;4.87;3.43;;;;;;;;;;5018912;28;20331;-85
2021/09/01 04:15:24;;;;;;;6.10;3.83;;;;;;;;;;5020527;28;20178;-85
2021/09/01 04:17:50;;;;;;;6.43;4.20;;;;;;;;;;5021004;28;20177;-85
2021/09/01 04:20:16;;;;;;;4.20;3.70;;;;;;;;;;5018464;28;20197;-86
2021/09/01 04:22:46;;;;;;;6.23;4.00;;;;;;;;;;5041588;28;20221;-86
2021/09/01 04:25:13;;;;;;;6.63;6.03;;;;;;;;;;5045041;28;20170;-86
2021/09/01 04:27:40;;;;;;;4.33;3.70;;;;;;;;;;5019163;28;20260;-85
2021/09/01 04:30:06;;;;;;;5.50;3.77;;;;;;;;;;5018640;28;20888;-86
2021/09/01 04:32:32;;;;;;;5.57;3.70;;;;;;;;;;5018853;28;20530;-86
2021/09/01 04:35:01;;;;;;;6.60;4.40;;;;;;;;;;5017345;28;20193;-86
2021/09/01 04:37:27;;;;;;;6.73;3.87;;;;;;;;;;5033741;28;20178;-86
2021/09/01 04:39:53;;;;;;;5.30;3.60;;;;;;;;;;5016747;28;20269;-86
2021/09/01 04:42:19;;;;;;;4.97;4.00;;;;;;;;;;5017080;28;20991;-86
2021/09/01 04:44:45;;;;;;;4.57;3.60;;;;;;;;;;5016538;28;20186;-86
2021/09/01 04:47:12;;;;;;;5.43;3.77;;;;;;;;;;5017692;28;20243;-86
2021/09/01 04:49:38;;;;;;;3.60;3.27;;;;;;;;;;5034175;28;20581;-86
2021/09/01 04:52:04;;;;;;;4.43;3.53;;;;;;;;;;5013762;28;20188;-85
2021/09/01 04:54:32;;;;;;;3.80;3.30;;;;;;;;;;5012310;28;20193;-86
2021/09/01 04:56:58;;;;;;;6.23;3.80;;;;;;;;;;5018257;28;20667;-87
2021/09/01 04:59:24;;;;;;;6.13;3.90;;;;;;;;;;5016671;28;20518;-87
2021/09/01 05:01:50;;;;;;;5.23;4.03;;;;;;;;;;5016368;28;20225;-84
2021/09/01 05:04:16;;;;;;;4.43;3.20;;;;;;;;;;5034587;28;20271;-85
2021/09/01 05:06:42;;;;;;;4.37;3.47;;;;;;;;;;5037053;28;20257;-85
2021/09/01 05:09:08;;;;;;;5.13;3.83;;;;;;;;;;5030503;28;20178;-85
2021/09/01 05:11:34;;;;;;;5.33;3.70;;;;;;;;;;5032408;28;20269;-85
2021/09/01 05:14:00;;;;;;;5.27;3.60;;;;;;;;;;5016703;28;20231;-84
2021/09/01 05:16:26;;;;;;;3.67;3.23;;;;;;;;;;5016095;28;20263;-84
2021/09/01 05:18:52;;;;;;;6.97;3.33;;;;;;;;;;5032996;28;20186;-84
2021/09/01 05:21:19;;;;;;;4.00;3.43;;;;;;;;;;5031693;28;20235;-85
2021/09/01 05:23:45;;;;;;;5.87;4.07;;;;;;;;;;5033057;28;20229;-85
2021/09/01 05:26:12;;;;;;;4.50;3.53;;;;;;;;;;5014771;28;20197;-84
2021/09/01 05:28:40;;;;;;;4.13;3.73;;;;;;;;;;5015840;28;20198;-85
2021/09/01 05:31:07;;;;;;;4.43;3.63;;;;;;;;;;5015290;28;20178;-85
2021/09/01 05:33:36;;;;;;;5.70;3.60;;;;;;;;;;5015422;28;20182;-84
2021/09/01 05:36:07;;;;;;;3.83;3.53;;;;;;;;;;5015645;28;20955;-84
2021/09/01 05:38:34;;;;;;;3.47;2.83;;;;;;;;;;5032438;28;20186;-84
2021/09/01 05:41:01;;;;;;;5.10;3.90;;;;;;;;;;5016074;28;20198;-84
2021/09/01 05:43:27;;;;;;;3.90;3.30;;;;;;;;;;5035152;28;20209;-84
2021/09/01 05:45:57;;;;;;;3.40;3.10;;;;;;;;;;5036235;28;20186;-84
2021/09/01 05:48:24;;;;;;;3.87;3.10;;;;;;;;;;5037266;28;20158;-84
2021/09/01 05:50:51;;;;;;;3.30;2.87;;;;;;;;;;5031683;28;20288;-84
2021/09/01 05:53:18;;;;;;;3.17;2.87;;;;;;;;;;5015457;28;20260;-84
2021/09/01 05:55:44;;;;;;;5.13;3.60;;;;;;;;;;5032961;28;20185;-89
2021/09/01 05:58:17;;;;;;;4.77;3.17;;;;;;;;;;5012599;28;20183;-84
2021/09/01 06:00:44;;;;;;;6.13;3.23;;;;;;;;;;5028288;28;20234;-83
2021/09/01 06:03:17;;;;;;;5.53;3.23;;;;;;;;;;5015397;28;20312;-84
2021/09/01 06:05:44;;;;;;;5.97;3.77;;;;;;;;;;5018818;28;20170;-84
2021/09/01 06:08:11;;;;;;;5.40;3.23;;;;;;;;;;5032211;28;20193;-83
2021/09/01 06:10:37;;;;;;;3.23;2.93;;;;;;;;;;5013377;28;20182;-83
2021/09/01 06:13:05;;;;;;;5.03;3.60;;;;;;;;;;5031035;28;20192;-84
2021/09/01 06:15:31;;;;;;;3.47;3.03;;;;;;;;;;5008846;28;20326;-83
2021/09/01 06:17:59;;;;;;;4.47;3.13;;;;;;;;;;5030881;28;20664;-84
2021/09/01 06:20:26;;;;;;;3.60;3.30;;;;;;;;;;5036151;28;20185;-84
2021/09/01 06:22:52;;;;;;;6.10;3.23;;;;;;;;;;5031701;28;20225;-85
2021/09/01 06:25:19;;;;;;;3.43;3.13;;;;;;;;;;5014504;28;20185;-84
2021/09/01 06:27:45;;;;;;;4.57;3.40;;;;;;;;;;5032670;28;20214;-86
2021/09/01 06:30:14;;;;;;;5.03;3.60;;;;;;;;;;5017502;28;20228;-84
2021/09/01 06:32:40;;;;;;;17.17;5.20;;;;;;;;;;5012097;28;20249;-84
2021/09/01 06:35:07;;;;;;;20.40;4.63;;;;;;;;;;5017030;28;21726;-84
2021/09/01 06:37:33;;;;;;;16.67;4.37;;;;;;;;;;5022160;28;20284;-84
2021/09/01 06:40:00;;;;;;;20.10;5.03;;;;;;;;;;5023237;28;20178;-84
2021/09/01 06:42:27;;;;;;;9.53;4.30;;;;;;;;;;5022151;28;20186;-84
2021/09/01 06:44:53;;;;;;;7.13;3.83;;;;;;;;;;5023279;28;20166;-85
2021/09/01 06:47:19;;;;;;;9.80;3.80;;;;;;;;;;5040568;28;20189;-85
2021/09/01 06:49:46;;;;;;;6.33;3.37;;;;;;;;;;5018432;28;20177;-85
2021/09/01 06:52:12;;;;;;;10.77;4.43;;;;;;;;;;5018523;28;20174;-85
2021/09/01 06:54:38;;;;;;;5.77;3.60;;;;;;;;;;5019177;28;20178;-85
2021/09/01 06:57:04;;;;;;;8.13;4.00;;;;;;;;;;5034984;28;20185;-84
2021/09/01 06:59:30;;;;;;;11.77;4.37;;;;;;;;;;5020319;28;20174;-85
2021/09/01 07:01:56;;;;;;;11.23;4.30;;;;;;;;;;5018175;28;20252;-84
2021/09/01 07:04:22;;;;;;;9.33;3.90;;;;;;;;;;5023834;28;20236;-84
2021/09/01 07:06:49;;;;;;;8.37;4.43;;;;;;;;;;5038838;28;20217;-84
2021/09/01 07:09:15;;;;;;;6.43;4.13;;;;;;;;;;5022707;28;20181;-85
2021/09/01 07:11:41;;;;;;;9.83;4.10;;;;;;;;;;5019890;28;20186;-84
2021/09/01 07:14:07;;;;;;;8.73;4.67;;;;;;;;;;5020763;28;20207;-84
2021/09/01 07:16:34;;;;;;;6.93;4.20;;;;;;;;;;5033235;28;20189;-84
2021/09/01 07:19:00;;;;;;;10.50;4.37;;;;;;;;;;5019041;28;20178;-86
2021/09/01 07:21:26;;;;;;;10.53;4.37;;;;;;;;;;5019623;28;20263;-84
2021/09/01 07:23:54;;;;;;;7.27;4.70;;;;;;;;;;5017370;28;20197;-85
2021/09/01 07:26:20;;;;;;;6.40;4.53;;;;;;;;;;5022127;28;20214;-84
2021/09/01 07:28:46;;;;;;;6.73;4.33;;;;;;;;;;5017113;28;20258;-84
2021/09/01 07:31:12;;;;;;;7.50;4.53;;;;;;;;;;5016951;28;20541;-84
2021/09/01 07:33:38;;;;;;;7.23;4.70;;;;;;;;;;5013946;28;20182;-84
2021/09/01 07:36:04;;;;;;;9.30;4.77;;;;;;;;;;5016639;28;20186;-83
2021/09/01 07:38:31;;;;;;;8.47;4.73;;;;;;;;;;5035532;28;20193;-84
2021/09/01 07:40:57;;;;;;;10.53;5.67;;;;;;;;;;5035661;28;20527;-84
2021/09/01 07:43:27;;;;;;;8.37;4.83;;;;;;;;;;5018150;28;20205;-84
2021/09/01 07:45:53;;;;;;;9.27;5.53;;;;;;;;;;5021873;28;20181;-84
2021/09/01 07:48:19;;;;;;;8.53;5.20;;;;;;;;;;5018217;28;20244;-84
2021/09/01 07:50:46;;;;;;;7.90;4.97;;;;;;;;;;5019939;28;20192;-84
2021/09/01 07:53:12;;;;;;;8.30;4.80;;;;;;;;;;5036163;28;20577;-84
2021/09/01 07:55:38;;;;;;;6.60;4.80;;;;;;;;;;5021648;28;20181;-84
2021/09/01 07:58:04;;;;;;;10.13;5.53;;;;;;;;;;5002932;28;20182;-84
2021/09/01 08:00:31;;;;;;;8.23;4.50;;;;;;;;;;5014255;28;20229;-85
2021/09/01 08:02:57;;;;;;;7.63;4.90;;;;;;;;;;5008401;28;20210;-84
2021/09/01 08:05:23;;;;;;;7.87;4.70;;;;;;;;;;5017672;28;20193;-84
2021/09/01 08:07:49;;;;;;;9.17;4.80;;;;;;;;;;5016735;28;20205;-84
2021/09/01 08:10:15;;;;;;;8.67;5.03;;;;;;;;;;5018966;28;20298;-84
2021/09/01 08:12:42;;;;;;;8.23;4.97;;;;;;;;;;5019216;28;20261;-84
2021/09/01 08:15:10;;;;;;;7.17;5.03;;;;;;;;;;5018562;28;20555;-84
2021/09/01 08:17:36;;;;;;;9.13;4.93;;;;;;;;;;5019272;28;20177;-85
2021/09/01 08:20:04;;;;;;;6.83;4.90;;;;;;;;;;5017458;28;20190;-84
2021/09/01 08:22:31;;;;;;;6.47;4.47;;;;;;;;;;5035799;28;20677;-84
2021/09/01 08:24:57;;;;;;;9.53;5.00;;;;;;;;;;5034827;28;20197;-84
2021/09/01 08:27:23;;;;;;;6.87;4.60;;;;;;;;;;5017787;28;20196;-84
2021/09/01 08:29:49;;;;;;;7.13;5.00;;;;;;;;;;5017398;28;20170;-84
2021/09/01 08:32:15;;;;;;;8.73;5.57;;;;;;;;;;5017105;28;20184;-83
2021/09/01 08:34:41;;;;;;;9.17;5.07;;;;;;;;;;5016140;28;20181;-82
2021/09/01 08:37:08;;;;;;;7.30;5.23;;;;;;;;;;5017548;28;20719;-85
2021/09/01 08:39:34;;;;;;;10.87;5.87;;;;;;;;;;5000237;28;20208;-85
2021/09/01 08:42:00;;;;;;;5.77;4.63;;;;;;;;;;5033557;28;20174;-85
2021/09/01 08:44:27;;;;;;;9.07;5.27;;;;;;;;;;5016670;28;20189;-85
2021/09/01 08:46:56;;;;;;;7.77;4.90;;;;;;;;;;5034924;28;20200;-85
2021/09/01 08:49:22;;;;;;;7.67;5.73;;;;;;;;;;5016315;28;20192;-85
2021/09/01 08:51:48;;;;;;;7.47;4.83;;;;;;;;;;5016153;28;20184;-85
2021/09/01 08:54:17;;;;;;;9.50;5.63;;;;;;;;;;5017750;28;20201;-85
2021/09/01 08:56:44;;;;;;;8.07;5.50;;;;;;;;;;5034468;28;20225;-85
2021/09/01 08:59:10;;;;;;;9.73;6.33;;;;;;;;;;5030183;28;20182;-84
2021/09/01 09:01:39;;;;;;;7.47;5.40;;;;;;;;;;5016897;28;20237;-85
2021/09/01 09:04:06;;;;;;;6.57;5.80;;;;;;;;;;4995764;28;20217;-84
2021/09/01 09:06:48;;;;;;;11.93;6.57;;;;;;;;;;5008522;28;20210;-84
2021/09/01 09:09:15;;;;;;;8.67;5.80;;;;;;;;;;5013717;28;20170;-84
2021/09/01 09:11:41;;;;;;;12.07;6.50;;;;;;;;;;5013720;28;20888;-84
2021/09/01 09:14:17;;;;;;;10.60;6.82;;;;;;;;;;4994926;28;20743;-84
2021/09/01 09:16:47;;;;;;;11.37;5.77;;;;;;;;;;4996497;28;20181;-84
2021/09/01 09:19:14;;;;;;;10.83;6.27;;;;;;;;;;4996973;28;20189;-84
2021/09/01 09:21:40;;;;;;;8.10;5.37;;;;;;;;;;5013330;28;20201;-84
2021/09/01 09:24:20;;;;;;;9.37;5.87;;;;;;;;;;5013817;28;20266;-84
2021/09/01 09:26:47;;;;;;;7.67;5.03;;;;;;;;;;4993899;28;20666;-84
2021/09/01 09:29:17;;;;;;;8.27;5.00;;;;;;;;;;4998855;28;20175;-83
2021/09/01 09:31:46;;;;;;;9.40;6.03;;;;;;;;;;5015276;28;20205;-84
2021/09/01 09:34:17;;;;;;;5.80;5.23;;;;;;;;;;5004503;28;20186;-84
2021/09/01 09:36:59;;;;;;;9.10;5.07;;;;;;;;;;5012070;28;20175;-84
2021/09/01 09:39:46;;;;;;;10.03;5.07;;;;;;;;;;5013869;28;20170;-85
2021/09/01 09:42:14;;;;;;;5.80;4.20;;;;;;;;;;5012598;28;20273;-84
2021/09/01 09:44:40;;;;;;;9.17;5.40;;;;;;;;;;5009907;28;20227;-85
2021/09/01 09:47:06;;;;;;;11.97;5.73;;;;;;;;;;4996055;28;20182;-85
2021/09/01 09:49:34;;;;;;;7.80;5.27;;;;;;;;;;4997863;28;20209;-84
2021/09/01 09:52:00;;;;;;;7.20;4.73;;;;;;;;;;5015555;28;20171;-85
2021/09/01 09:54:27;;;;;;;7.60;4.57;;;;;;;;;;4996298;28;20178;-84
2021/09/01 09:57:13;;;;;;;7.60;5.67;;;;;;;;;;5020958;28;20191;-84
2021/09/01 09:59:40;;;;;;;9.17;5.17;;;;;;;;;;4976561;28;20269;-84
2021/09/01 10:02:06;;;;;;;7.83;5.00;;;;;;;;;;5008566;28;20635;-84
2021/09/01 10:04:32;;;;;;;9.37;5.00;;;;;;;;;;5015962;28;20264;-84
2021/09/01 10:06:58;;;;;;;8.83;4.50;;;;;;;;;;5032646;28;20193;-85
2021/09/01 10:09:24;;;;;;;6.27;3.83;;;;;;;;;;5024222;28;20174;-85
2021/09/01 10:11:51;;;;;;;5.63;4.23;;;;;;;;;;5031265;28;20514;-84
2021/09/01 10:14:23;;;;;;;7.87;4.37;;;;;;;;;;5032646;28;20617;-84
2021/09/01 10:16:52;;;;;;;8.77;4.07;;;;;;;;;;5021928;28;20187;-85
2021/09/01 10:19:20;;;;;;;5.43;3.93;;;;;;;;;;5009050;28;20632;-85
2021/09/01 10:21:53;;;;;;;5.20;3.57;;;;;;;;;;5030936;28;20178;-85
2021/09/01 10:24:40;;;;;;;5.03;4.40;;;;;;;;;;5019498;28;20206;-85
2021/09/01 10:27:13;;;;;;;10.40;4.73;;;;;;;;;;4995018;28;20261;-85
2021/09/01 10:29:39;;;;;;;4.37;3.63;;;;;;;;;;5022146;28;20169;-84
2021/09/01 10:32:15;;;;;;;7.17;4.10;;;;;;;;;;5031045;28;20637;-85
2021/09/01 10:34:41;;;;;;;7.30;4.03;;;;;;;;;;5032575;28;20193;-85
2021/09/01 10:37:07;;;;;;;4.70;3.83;;;;;;;;;;5030854;28;20525;-84
2021/09/01 10:39:33;;;;;;;6.97;4.30;;;;;;;;;;5013982;28;20211;-85
2021/09/01 10:41:59;;;;;;;9.67;4.70;;;;;;;;;;5030479;28;20264;-86
2021/09/01 10:44:31;;;;;;;8.63;4.43;;;;;;;;;;5014568;28;20613;-86
2021/09/01 10:47:01;;;;;;;5.87;4.00;;;;;;;;;;5031198;28;20214;-86
2021/09/01 10:49:47;;;;;;;6.13;3.97;;;;;;;;;;5015312;28;20223;-87
2021/09/01 10:52:13;;;;;;;9.77;4.37;;;;;;;;;;5031240;28;20543;-86
2021/09/01 10:54:41;;;;;;;6.37;4.40;;;;;;;;;;5016771;28;20189;-86
2021/09/01 10:57:21;;;;;;;7.70;4.47;;;;;;;;;;5033862;28;20517;-87
2021/09/01 10:59:47;;;;;;;6.37;4.37;;;;;;;;;;5007593;28;20201;-86
2021/09/01 11:02:14;;;;;;;6.23;4.47;;;;;;;;;;5052180;28;20173;-86
2021/09/01 11:04:48;;;;;;;5.93;4.10;;;;;;;;;;5051217;28;20227;-86
2021/09/01 11:07:21;;;;;;;5.60;3.77;;;;;;;;;;5051374;28;20193;-86
2021/09/01 11:09:54;;;;;;;6.07;4.03;;;;;;;;;;5007218;28;20196;-86
2021/09/01 11:12:23;;;;;;;7.00;4.00;;;;;;;;;;5031523;28;20173;-85
2021/09/01 11:14:50;;;;;;;5.77;4.13;;;;;;;;;;5039050;28;20181;-85
2021/09/01 11:17:18;;;;;;;6.33;4.30;;;;;;;;;;5051832;28;20173;-85
2021/09/01 11:19:48;;;;;;;4.80;4.30;;;;;;;;;;5035183;28;20240;-85
2021/09/01 11:22:17;;;;;;;5.67;4.37;;;;;;;;;;5031544;28;20201;-86
2021/09/01 11:24:44;;;;;;;5.93;4.40;;;;;;;;;;5030887;28;20350;-85
2021/09/01 11:27:13;;;;;;;6.00;3.90;;;;;;;;;;5014652;28;20172;-85
2021/09/01 11:29:39;;;;;;;8.03;5.00;;;;;;;;;;5013868;28;20176;-86
2021/09/01 11:32:05;;;;;;;5.80;4.87;;;;;;;;;;5017556;28;20187;-84
2021/09/01 11:34:31;;;;;;;5.00;4.50;;;;;;;;;;5017797;28;20203;-84
2021/09/01 11:36:57;;;;;;;7.80;4.97;;;;;;;;;;5017058;28;20170;-84
2021/09/01 11:39:24;;;;;;;9.53;5.30;;;;;;;;;;5015428;28;20205;-86
2021/09/01 11:42:04;;;;;;;6.77;5.53;;;;;;;;;;5034101;28;20280;-85
2021/09/01 11:44:30;;;;;;;8.07;5.77;;;;;;;;;;5019656;28;20299;-86
2021/09/01 11:46:56;;;;;;;7.30;5.53;;;;;;;;;;5017698;28;20180;-86
2021/09/01 11:49:22;;;;;;;9.70;6.50;;;;;;;;;;5017711;28;20257;-86
2021/09/01 11:51:50;;;;;;;6.70;6.10;;;;;;;;;;5033921;28;20174;-86
2021/09/01 11:54:16;;;;;;;9.60;6.07;;;;;;;;;;5031971;28;20188;-86
2021/09/01 11:56:43;;;;;;;8.63;7.43;;;;;;;;;;5037646;28;20421;-86
2021/09/01 11:59:10;;;;;;;9.30;6.80;;;;;;;;;;5018384;28;20227;-85
2021/09/01 12:01:39;;;;;;;10.43;7.13;;;;;;;;;;5034359;28;20218;-86
2021/09/01 12:04:05;;;;;;;9.00;6.87;;;;;;;;;;5017447;28;20205;-86
2021/09/01 12:06:35;;;;;;;8.10;6.90;;;;;;;;;;5014088;28;20195;-86
2021/09/01 12:09:02;;;;;;;6.83;5.90;;;;;;;;;;5014528;28;20198;-86
2021/09/01 12:11:30;;;;;;;8.57;7.30;;;;;;;;;;5005974;28;20365;-86
2021/09/01 12:14:01;;;;;;;10.80;6.67;;;;;;;;;;5015068;28;20190;-86
2021/09/01 12:16:59;;;;;;;9.17;7.03;;;;;;;;;;4990697;28;20251;-86
2021/09/01 12:19:25;;;;;;;11.73;7.20;;;;;;;;;;4981583;28;20669;-86
2021/09/01 12:21:55;;;;;;;8.40;6.27;;;;;;;;;;5020014;28;20585;-86
2021/09/01 12:24:24;;;;;;;6.43;5.83;;;;;;;;;;5002143;28;20206;-86
2021/09/01 12:27:12;;;;;;;9.83;6.90;;;;;;;;;;5014555;28;20472;-86
2021/09/01 12:29:51;;;;;;;6.93;6.20;;;;;;;;;;5015362;28;20183;-86
2021/09/01 12:32:24;;;;;;;7.33;5.93;;;;;;;;;;5014670;28;20185;-86
2021/09/01 12:34:59;;;;;;;6.97;6.23;;;;;;;;;;5013544;28;20190;-88
2021/09/01 12:37:27;;;;;;;8.17;6.83;;;;;;;;;;5005044;28;20190;-86
2021/09/01 12:39:58;;;;;;;7.63;6.57;;;;;;;;;;5018056;28;20190;-85
2021/09/01 12:42:33;;;;;;;8.40;6.75;;;;;;;;;;5018932;28;20447;-85
2021/09/01 12:45:00;;;;;;;8.67;6.47;;;;;;;;;;5019577;28;20188;-85
2021/09/01 12:47:28;;;;;;;8.17;7.27;;;;;;;;;;5017087;28;20171;-85
2021/09/01 12:49:54;;;;;;;10.43;6.57;;;;;;;;;;4999193;28;20182;-85
2021/09/01 12:52:22;;;;;;;9.10;6.77;;;;;;;;;;4999992;28;20612;-86
2021/09/01 12:54:48;;;;;;;10.40;7.00;;;;;;;;;;5000833;28;20194;-85
2021/09/01 12:57:14;;;;;;;8.10;6.67;;;;;;;;;;5003906;28;20194;-85
2021/09/01 12:59:41;;;;;;;11.83;7.50;;;;;;;;;;5007979;28;20267;-85
2021/09/01 13:02:09;;;;;;;9.50;6.83;;;;;;;;;;5013857;28;20209;-86
2021/09/01 13:04:35;;;;;;;9.03;7.77;;;;;;;;;;5013890;28;20209;-86
2021/09/01 13:07:02;;;;;;;9.93;8.13;;;;;;;;;;5013785;28;20233;-86
2021/09/01 13:09:28;;;;;;;10.30;8.43;;;;;;;;;;5032397;28;20178;-85
2021/09/01 13:11:55;;;;;;;9.80;7.90;;;;;;;;;;5033414;28;20177;-85
2021/09/01 13:14:24;;;;;;;9.77;7.63;;;;;;;;;;5051561;28;20179;-87
2021/09/01 13:16:51;;;;;;;9.47;7.40;;;;;;;;;;5049514;28;20344;-89
2021/09/01 13:19:17;;;;;;;10.93;8.20;;;;;;;;;;5028655;28;20177;-89
2021/09/01 13:21:44;;;;;;;9.33;7.67;;;;;;;;;;5043031;28;20182;-89
2021/09/01 13:24:10;;;;;;;12.70;10.10;;;;;;;;;;5020849;28;20251;-88
2021/09/01 13:26:36;;;;;;;9.67;7.80;;;;;;;;;;5022350;28;20185;-89
2021/09/01 13:29:04;;;;;;;8.90;7.27;;;;;;;;;;5020262;28;20182;-88
2021/09/01 13:31:34;;;;;;;12.23;8.80;;;;;;;;;;5042842;28;20173;-88
2021/09/01 13:34:01;;;;;;;10.30;8.40;;;;;;;;;;5022287;28;20601;-88
2021/09/01 13:36:27;;;;;;;10.07;8.53;;;;;;;;;;5017997;28;20915;-89
2021/09/01 13:38:57;;;;;;;8.87;7.97;;;;;;;;;;5032701;28;20300;-88
2021/09/01 13:41:23;;;;;;;9.57;8.57;;;;;;;;;;5033174;28;20194;-88
2021/09/01 13:43:49;;;;;;;9.67;8.60;;;;;;;;;;5034816;28;20202;-88
2021/09/01 13:46:16;;;;;;;9.90;8.90;;;;;;;;;;5016143;28;20185;-88
2021/09/01 13:48:42;;;;;;;13.43;10.73;;;;;;;;;;5017262;28;20265;-88
2021/09/01 13:51:08;;;;;;;10.40;9.37;;;;;;;;;;5010819;28;20178;-88
2021/09/01 13:53:36;;;;;;;11.40;10.20;;;;;;;;;;5016718;28;20641;-88
2021/09/01 13:56:07;;;;;;;11.77;9.57;;;;;;;;;;5013433;28;20189;-88
2021/09/01 13:58:33;;;;;;;12.50;11.23;;;;;;;;;;5015425;28;20174;-88
2021/09/01 14:01:03;;;;;;;11.30;10.00;;;;;;;;;;5004295;28;20243;-88
2021/09/01 14:03:32;;;;;;;11.40;10.23;;;;;;;;;;5014162;28;20688;-88
2021/09/01 14:05:58;;;;;;;13.13;11.73;;;;;;;;;;5014349;28;20654;-88
2021/09/01 14:08:27;;;;;;;13.60;12.20;;;;;;;;;;5016018;28;20169;-88
2021/09/01 14:10:53;;;;;;;12.73;11.43;;;;;;;;;;5032951;28;20181;-88
2021/09/01 14:13:20;;;;;;;13.83;12.47;;;;;;;;;;5017846;28;20182;-88
2021/09/01 14:15:46;;;;;;;13.07;11.73;;;;;;;;;;5014857;28;20192;-88
2021/09/01 14:18:15;;;;;;;13.73;12.17;;;;;;;;;;5015088;28;20197;-88
2021/09/01 14:20:41;;;;;;;13.30;11.90;;;;;;;;;;5016879;28;20186;-88
2021/09/01 14:23:11;;;;;;;13.57;12.17;;;;;;;;;;5006712;28;20234;-89
2021/09/01 14:25:38;;;;;;;12.03;10.83;;;;;;;;;;5017202;28;20182;-85
2021/09/01 14:28:04;;;;;;;12.70;11.03;;;;;;;;;;5013165;28;20303;-84
2021/09/01 14:30:30;;;;;;;13.27;11.13;;;;;;;;;;5012728;28;20466;-86
2021/09/01 14:32:56;;;;;;;12.67;11.40;;;;;;;;;;5016175;28;20190;-85
2021/09/01 14:35:23;;;;;;;12.93;11.27;;;;;;;;;;5011300;28;20190;-84
2021/09/01 14:37:51;;;;;;;14.93;12.47;;;;;;;;;;5012464;28;20542;-85
2021/09/01 14:40:17;;;;;;;14.60;12.93;;;;;;;;;;5015967;28;20538;-85
2021/09/01 14:42:43;;;;;;;16.43;14.67;;;;;;;;;;5015276;28;20198;-85